sensor_id;sensor_type;location;lat;lon;timestamp;P1;durP1;ratioP1;P2;durP2;ratioP2
2772;SDS011;1394;47.044;15.744;2022-08-02T00:00:34;6.93;;;6.23;;
2772;SDS011;1394;47.044;15.744;2022-08-02T00:03:02;7.00;;;6.30;;
2772;SDS011;1394;47.044;15.744;2022-08-02T00:05:29;7.23;;;6.60;;
2772;SDS011;1394;47.044;15.744;2022-08-02T00:07:56;7.20;;;6.50;;
2772;SDS011;1394;47.044;15.744;2022-08-02T00:10:25;7.00;;;6.40;;
2772;SDS011;1394;47.044;15.744;2022-08-02T00:12:52;7.87;;;6.23;;
2772;SDS011;1394;47.044;15.744;2022-08-02T00:15:20;7.07;;;6.37;;
2772;SDS011;1394;47.044;15.744;2022-08-02T00:17:47;6.80;;;6.07;;
2772;SDS011;1394;47.044;15.744;2022-08-02T00:20:14;8.00;;;6.70;;
2772;SDS011;1394;47.044;15.744;2022-08-02T00:22:48;6.70;;;6.00;;
2772;SDS011;1394;47.044;15.744;2022-08-02T00:25:15;6.47;;;5.87;;
2772;SDS011;1394;47.044;15.744;2022-08-02T00:27:44;6.70;;;6.00;;
2772;SDS011;1394;47.044;15.744;2022-08-02T00:30:11;7.10;;;6.47;;
2772;SDS011;1394;47.044;15.744;2022-08-02T00:32:38;7.23;;;6.00;;
2772;SDS011;1394;47.044;15.744;2022-08-02T00:35:06;6.27;;;5.77;;
2772;SDS011;1394;47.044;15.744;2022-08-02T00:37:37;7.50;;;6.80;;
2772;SDS011;1394;47.044;15.744;2022-08-02T00:40:04;8.40;;;6.60;;
2772;SDS011;1394;47.044;15.744;2022-08-02T00:42:33;7.30;;;6.60;;
2772;SDS011;1394;47.044;15.744;2022-08-02T00:45:01;6.97;;;6.27;;
2772;SDS011;1394;47.044;15.744;2022-08-02T00:47:29;7.23;;;6.53;;
2772;SDS011;1394;47.044;15.744;2022-08-02T00:49:57;7.40;;;6.80;;
2772;SDS011;1394;47.044;15.744;2022-08-02T00:52:24;7.23;;;6.63;;
2772;SDS011;1394;47.044;15.744;2022-08-02T00:54:51;7.20;;;6.40;;
2772;SDS011;1394;47.044;15.744;2022-08-02T00:57:18;6.90;;;6.30;;
2772;SDS011;1394;47.044;15.744;2022-08-02T00:59:48;7.80;;;6.63;;
2772;SDS011;1394;47.044;15.744;2022-08-02T01:02:16;7.57;;;6.87;;
2772;SDS011;1394;47.044;15.744;2022-08-02T01:04:43;7.93;;;6.10;;
2772;SDS011;1394;47.044;15.744;2022-08-02T01:07:11;7.70;;;6.70;;
2772;SDS011;1394;47.044;15.744;2022-08-02T01:09:39;6.70;;;6.00;;
2772;SDS011;1394;47.044;15.744;2022-08-02T01:12:06;7.20;;;6.43;;
2772;SDS011;1394;47.044;15.744;2022-08-02T01:14:33;7.20;;;6.60;;
2772;SDS011;1394;47.044;15.744;2022-08-02T01:17:02;10.30;;;6.63;;
2772;SDS011;1394;47.044;15.744;2022-08-02T01:19:37;6.93;;;6.33;;
2772;SDS011;1394;47.044;15.744;2022-08-02T01:25:14;6.93;;;6.33;;
2772;SDS011;1394;47.044;15.744;2022-08-02T01:27:50;6.47;;;5.87;;
2772;SDS011;1394;47.044;15.744;2022-08-02T01:30:22;6.60;;;6.00;;
2772;SDS011;1394;47.044;15.744;2022-08-02T01:32:49;5.93;;;5.43;;
2772;SDS011;1394;47.044;15.744;2022-08-02T01:35:21;7.17;;;6.43;;
2772;SDS011;1394;47.044;15.744;2022-08-02T01:37:50;6.73;;;6.03;;
2772;SDS011;1394;47.044;15.744;2022-08-02T01:40:20;6.37;;;5.77;;
2772;SDS011;1394;47.044;15.744;2022-08-02T01:42:48;6.60;;;5.97;;
2772;SDS011;1394;47.044;15.744;2022-08-02T01:45:17;6.30;;;5.70;;
2772;SDS011;1394;47.044;15.744;2022-08-02T01:47:47;6.57;;;5.97;;
2772;SDS011;1394;47.044;15.744;2022-08-02T01:50:15;6.80;;;6.20;;
2772;SDS011;1394;47.044;15.744;2022-08-02T01:52:46;6.47;;;5.87;;
2772;SDS011;1394;47.044;15.744;2022-08-02T01:55:17;6.53;;;5.87;;
2772;SDS011;1394;47.044;15.744;2022-08-02T01:57:46;8.00;;;7.30;;
2772;SDS011;1394;47.044;15.744;2022-08-02T02:00:15;7.30;;;6.57;;
2772;SDS011;1394;47.044;15.744;2022-08-02T02:02:43;6.70;;;6.10;;
2772;SDS011;1394;47.044;15.744;2022-08-02T02:05:15;6.30;;;5.70;;
2772;SDS011;1394;47.044;15.744;2022-08-02T02:07:42;7.77;;;6.43;;
2772;SDS011;1394;47.044;15.744;2022-08-02T02:10:12;7.40;;;6.23;;
2772;SDS011;1394;47.044;15.744;2022-08-02T02:12:40;6.70;;;6.20;;
2772;SDS011;1394;47.044;15.744;2022-08-02T02:15:09;6.47;;;5.87;;
2772;SDS011;1394;47.044;15.744;2022-08-02T02:17:37;6.83;;;6.23;;
2772;SDS011;1394;47.044;15.744;2022-08-02T02:20:06;6.90;;;6.20;;
2772;SDS011;1394;47.044;15.744;2022-08-02T02:22:35;6.63;;;6.03;;
2772;SDS011;1394;47.044;15.744;2022-08-02T02:25:02;6.60;;;6.10;;
2772;SDS011;1394;47.044;15.744;2022-08-02T02:27:30;6.60;;;6.00;;
2772;SDS011;1394;47.044;15.744;2022-08-02T02:29:57;6.47;;;5.87;;
2772;SDS011;1394;47.044;15.744;2022-08-02T02:32:25;6.17;;;5.67;;
2772;SDS011;1394;47.044;15.744;2022-08-02T02:34:53;7.20;;;6.57;;
2772;SDS011;1394;47.044;15.744;2022-08-02T02:37:22;7.20;;;6.17;;
2772;SDS011;1394;47.044;15.744;2022-08-02T02:39:56;7.03;;;6.10;;
2772;SDS011;1394;47.044;15.744;2022-08-02T02:42:26;6.80;;;6.20;;
2772;SDS011;1394;47.044;15.744;2022-08-02T02:44:54;6.80;;;6.20;;
2772;SDS011;1394;47.044;15.744;2022-08-02T02:47:26;6.37;;;5.77;;
2772;SDS011;1394;47.044;15.744;2022-08-02T02:49:54;6.27;;;5.70;;
2772;SDS011;1394;47.044;15.744;2022-08-02T02:52:22;6.53;;;5.80;;
2772;SDS011;1394;47.044;15.744;2022-08-02T02:54:50;7.03;;;6.43;;
2772;SDS011;1394;47.044;15.744;2022-08-02T02:57:19;6.50;;;5.90;;
2772;SDS011;1394;47.044;15.744;2022-08-02T02:59:47;9.73;;;6.57;;
2772;SDS011;1394;47.044;15.744;2022-08-02T03:02:15;8.33;;;5.77;;
2772;SDS011;1394;47.044;15.744;2022-08-02T03:04:43;8.93;;;6.67;;
2772;SDS011;1394;47.044;15.744;2022-08-02T03:07:10;7.13;;;6.00;;
2772;SDS011;1394;47.044;15.744;2022-08-02T03:09:37;6.93;;;6.20;;
2772;SDS011;1394;47.044;15.744;2022-08-02T03:12:05;7.63;;;7.00;;
2772;SDS011;1394;47.044;15.744;2022-08-02T03:14:34;7.40;;;6.70;;
2772;SDS011;1394;47.044;15.744;2022-08-02T03:17:06;6.60;;;6.00;;
2772;SDS011;1394;47.044;15.744;2022-08-02T03:19:33;6.37;;;5.87;;
2772;SDS011;1394;47.044;15.744;2022-08-02T03:22:00;6.33;;;5.73;;
2772;SDS011;1394;47.044;15.744;2022-08-02T03:24:27;6.87;;;6.20;;
2772;SDS011;1394;47.044;15.744;2022-08-02T03:26:54;6.67;;;6.07;;
2772;SDS011;1394;47.044;15.744;2022-08-02T03:29:22;9.13;;;6.03;;
2772;SDS011;1394;47.044;15.744;2022-08-02T03:31:50;6.90;;;6.20;;
2772;SDS011;1394;47.044;15.744;2022-08-02T03:34:18;7.23;;;6.53;;
2772;SDS011;1394;47.044;15.744;2022-08-02T03:36:49;8.00;;;7.30;;
2772;SDS011;1394;47.044;15.744;2022-08-02T03:39:18;7.70;;;7.00;;
2772;SDS011;1394;47.044;15.744;2022-08-02T03:41:45;7.87;;;7.17;;
2772;SDS011;1394;47.044;15.744;2022-08-02T03:44:14;7.57;;;6.97;;
2772;SDS011;1394;47.044;15.744;2022-08-02T03:46:41;8.23;;;6.07;;
2772;SDS011;1394;47.044;15.744;2022-08-02T03:49:17;6.53;;;5.80;;
2772;SDS011;1394;47.044;15.744;2022-08-02T03:51:45;9.07;;;6.60;;
2772;SDS011;1394;47.044;15.744;2022-08-02T03:54:13;6.13;;;5.50;;
2772;SDS011;1394;47.044;15.744;2022-08-02T03:56:40;6.33;;;5.73;;
2772;SDS011;1394;47.044;15.744;2022-08-02T03:59:11;6.43;;;5.83;;
2772;SDS011;1394;47.044;15.744;2022-08-02T04:01:42;6.13;;;5.17;;
2772;SDS011;1394;47.044;15.744;2022-08-02T04:04:10;7.13;;;6.43;;
2772;SDS011;1394;47.044;15.744;2022-08-02T04:06:38;6.27;;;5.67;;
2772;SDS011;1394;47.044;15.744;2022-08-02T04:09:06;6.50;;;5.67;;
2772;SDS011;1394;47.044;15.744;2022-08-02T04:11:33;6.77;;;6.13;;
2772;SDS011;1394;47.044;15.744;2022-08-02T04:14:02;9.20;;;6.73;;
2772;SDS011;1394;47.044;15.744;2022-08-02T04:16:33;6.70;;;6.00;;
2772;SDS011;1394;47.044;15.744;2022-08-02T04:19:04;5.73;;;5.00;;
2772;SDS011;1394;47.044;15.744;2022-08-02T04:21:34;5.37;;;4.87;;
2772;SDS011;1394;47.044;15.744;2022-08-02T04:24:04;7.50;;;6.80;;
2772;SDS011;1394;47.044;15.744;2022-08-02T04:26:32;7.07;;;6.30;;
2772;SDS011;1394;47.044;15.744;2022-08-02T04:29:10;5.87;;;5.37;;
2772;SDS011;1394;47.044;15.744;2022-08-02T04:31:38;6.83;;;5.93;;
2772;SDS011;1394;47.044;15.744;2022-08-02T04:34:10;7.20;;;6.50;;
2772;SDS011;1394;47.044;15.744;2022-08-02T04:36:37;7.53;;;6.10;;
2772;SDS011;1394;47.044;15.744;2022-08-02T04:39:06;6.77;;;6.17;;
2772;SDS011;1394;47.044;15.744;2022-08-02T04:41:41;6.70;;;6.10;;
2772;SDS011;1394;47.044;15.744;2022-08-02T04:44:08;5.93;;;5.33;;
2772;SDS011;1394;47.044;15.744;2022-08-02T04:46:36;7.80;;;7.10;;
2772;SDS011;1394;47.044;15.744;2022-08-02T04:49:09;5.93;;;5.33;;
2772;SDS011;1394;47.044;15.744;2022-08-02T04:51:38;8.00;;;7.30;;
2772;SDS011;1394;47.044;15.744;2022-08-02T04:54:07;7.60;;;6.80;;
2772;SDS011;1394;47.044;15.744;2022-08-02T04:56:44;7.90;;;7.10;;
2772;SDS011;1394;47.044;15.744;2022-08-02T04:59:12;7.67;;;6.23;;
2772;SDS011;1394;47.044;15.744;2022-08-02T05:01:39;8.60;;;6.43;;
2772;SDS011;1394;47.044;15.744;2022-08-02T05:04:07;9.40;;;7.50;;
2772;SDS011;1394;47.044;15.744;2022-08-02T05:06:35;8.27;;;7.23;;
2772;SDS011;1394;47.044;15.744;2022-08-02T05:09:02;7.80;;;7.10;;
2772;SDS011;1394;47.044;15.744;2022-08-02T05:11:31;12.10;;;6.90;;
2772;SDS011;1394;47.044;15.744;2022-08-02T05:14:02;7.50;;;6.80;;
2772;SDS011;1394;47.044;15.744;2022-08-02T05:16:33;6.60;;;6.00;;
2772;SDS011;1394;47.044;15.744;2022-08-02T05:19:00;7.20;;;6.60;;
2772;SDS011;1394;47.044;15.744;2022-08-02T05:21:31;7.53;;;6.90;;
2772;SDS011;1394;47.044;15.744;2022-08-02T05:23:58;7.40;;;6.77;;
2772;SDS011;1394;47.044;15.744;2022-08-02T05:26:25;7.70;;;7.00;;
2772;SDS011;1394;47.044;15.744;2022-08-02T05:28:54;7.93;;;7.13;;
2772;SDS011;1394;47.044;15.744;2022-08-02T05:31:21;9.67;;;7.67;;
2772;SDS011;1394;47.044;15.744;2022-08-02T05:33:48;8.17;;;7.00;;
2772;SDS011;1394;47.044;15.744;2022-08-02T05:36:15;7.13;;;6.53;;
2772;SDS011;1394;47.044;15.744;2022-08-02T05:38:43;6.87;;;6.30;;
2772;SDS011;1394;47.044;15.744;2022-08-02T05:41:10;7.00;;;6.30;;
2772;SDS011;1394;47.044;15.744;2022-08-02T05:43:37;8.10;;;7.40;;
2772;SDS011;1394;47.044;15.744;2022-08-02T05:46:06;8.37;;;7.33;;
2772;SDS011;1394;47.044;15.744;2022-08-02T05:48:34;7.77;;;6.53;;
2772;SDS011;1394;47.044;15.744;2022-08-02T05:51:02;6.47;;;5.97;;
2772;SDS011;1394;47.044;15.744;2022-08-02T05:53:32;7.10;;;5.97;;
2772;SDS011;1394;47.044;15.744;2022-08-02T05:56:02;8.77;;;6.17;;
2772;SDS011;1394;47.044;15.744;2022-08-02T05:58:35;7.63;;;6.93;;
2772;SDS011;1394;47.044;15.744;2022-08-02T06:01:04;9.20;;;7.70;;
2772;SDS011;1394;47.044;15.744;2022-08-02T06:03:34;8.33;;;7.53;;
2772;SDS011;1394;47.044;15.744;2022-08-02T06:06:03;7.27;;;6.67;;
2772;SDS011;1394;47.044;15.744;2022-08-02T06:08:33;9.27;;;8.37;;
2772;SDS011;1394;47.044;15.744;2022-08-02T06:11:04;7.00;;;6.40;;
2772;SDS011;1394;47.044;15.744;2022-08-02T06:13:32;7.60;;;6.90;;
2772;SDS011;1394;47.044;15.744;2022-08-02T06:16:02;8.93;;;7.80;;
2772;SDS011;1394;47.044;15.744;2022-08-02T06:18:32;12.17;;;8.67;;
2772;SDS011;1394;47.044;15.744;2022-08-02T06:21:00;9.50;;;7.07;;
2772;SDS011;1394;47.044;15.744;2022-08-02T06:23:28;6.70;;;6.10;;
2772;SDS011;1394;47.044;15.744;2022-08-02T06:25:55;6.80;;;6.20;;
2772;SDS011;1394;47.044;15.744;2022-08-02T06:28:23;6.60;;;5.90;;
2772;SDS011;1394;47.044;15.744;2022-08-02T06:30:51;7.83;;;6.23;;
2772;SDS011;1394;47.044;15.744;2022-08-02T06:33:18;8.27;;;6.40;;
2772;SDS011;1394;47.044;15.744;2022-08-02T06:35:48;6.07;;;5.47;;
2772;SDS011;1394;47.044;15.744;2022-08-02T06:38:18;6.40;;;5.53;;
2772;SDS011;1394;47.044;15.744;2022-08-02T06:40:50;5.70;;;5.20;;
2772;SDS011;1394;47.044;15.744;2022-08-02T06:43:22;7.63;;;5.57;;
2772;SDS011;1394;47.044;15.744;2022-08-02T06:45:52;5.20;;;4.70;;
2772;SDS011;1394;47.044;15.744;2022-08-02T06:48:19;6.97;;;5.47;;
2772;SDS011;1394;47.044;15.744;2022-08-02T06:50:48;6.10;;;5.50;;
2772;SDS011;1394;47.044;15.744;2022-08-02T06:53:15;6.37;;;5.00;;
2772;SDS011;1394;47.044;15.744;2022-08-02T06:55:42;5.63;;;5.10;;
2772;SDS011;1394;47.044;15.744;2022-08-02T06:58:10;5.70;;;5.20;;
2772;SDS011;1394;47.044;15.744;2022-08-02T07:00:37;5.40;;;4.60;;
2772;SDS011;1394;47.044;15.744;2022-08-02T07:03:04;9.00;;;5.03;;
2772;SDS011;1394;47.044;15.744;2022-08-02T07:05:32;5.23;;;4.73;;
2772;SDS011;1394;47.044;15.744;2022-08-02T07:08:01;5.20;;;4.70;;
2772;SDS011;1394;47.044;15.744;2022-08-02T07:10:29;5.67;;;5.10;;
2772;SDS011;1394;47.044;15.744;2022-08-02T07:12:56;8.47;;;4.97;;
2772;SDS011;1394;47.044;15.744;2022-08-02T07:15:24;5.13;;;4.13;;
2772;SDS011;1394;47.044;15.744;2022-08-02T07:17:52;5.43;;;4.60;;
2772;SDS011;1394;47.044;15.744;2022-08-02T07:20:19;6.10;;;5.07;;
2772;SDS011;1394;47.044;15.744;2022-08-02T07:22:46;7.00;;;4.93;;
2772;SDS011;1394;47.044;15.744;2022-08-02T07:25:15;4.77;;;4.27;;
2772;SDS011;1394;47.044;15.744;2022-08-02T07:27:43;4.93;;;4.43;;
2772;SDS011;1394;47.044;15.744;2022-08-02T07:30:10;5.23;;;4.73;;
2772;SDS011;1394;47.044;15.744;2022-08-02T07:32:38;6.10;;;4.40;;
2772;SDS011;1394;47.044;15.744;2022-08-02T07:35:06;6.33;;;4.43;;
2772;SDS011;1394;47.044;15.744;2022-08-02T07:37:34;5.37;;;4.90;;
2772;SDS011;1394;47.044;15.744;2022-08-02T07:40:03;8.10;;;5.13;;
2772;SDS011;1394;47.044;15.744;2022-08-02T07:42:32;5.47;;;4.97;;
2772;SDS011;1394;47.044;15.744;2022-08-02T07:44:59;6.63;;;4.97;;
2772;SDS011;1394;47.044;15.744;2022-08-02T07:47:26;4.67;;;4.27;;
2772;SDS011;1394;47.044;15.744;2022-08-02T07:49:54;5.60;;;4.13;;
2772;SDS011;1394;47.044;15.744;2022-08-02T07:52:24;5.20;;;4.70;;
2772;SDS011;1394;47.044;15.744;2022-08-02T07:54:52;5.07;;;4.57;;
2772;SDS011;1394;47.044;15.744;2022-08-02T07:57:19;4.47;;;4.07;;
2772;SDS011;1394;47.044;15.744;2022-08-02T07:59:47;6.53;;;4.40;;
2772;SDS011;1394;47.044;15.744;2022-08-02T08:02:16;4.10;;;3.70;;
2772;SDS011;1394;47.044;15.744;2022-08-02T08:04:43;5.67;;;4.90;;
2772;SDS011;1394;47.044;15.744;2022-08-02T08:07:11;12.60;;;11.40;;
2772;SDS011;1394;47.044;15.744;2022-08-02T08:09:39;3.87;;;3.47;;
2772;SDS011;1394;47.044;15.744;2022-08-02T08:12:08;4.70;;;4.00;;
2772;SDS011;1394;47.044;15.744;2022-08-02T08:14:36;3.70;;;3.20;;
2772;SDS011;1394;47.044;15.744;2022-08-02T08:17:05;6.73;;;3.27;;
2772;SDS011;1394;47.044;15.744;2022-08-02T08:19:33;4.70;;;2.93;;
2772;SDS011;1394;47.044;15.744;2022-08-02T08:22:00;3.70;;;3.40;;
2772;SDS011;1394;47.044;15.744;2022-08-02T08:24:30;5.10;;;3.10;;
2772;SDS011;1394;47.044;15.744;2022-08-02T08:26:57;3.63;;;2.90;;
2772;SDS011;1394;47.044;15.744;2022-08-02T08:29:25;4.10;;;3.10;;
2772;SDS011;1394;47.044;15.744;2022-08-02T08:31:52;4.43;;;3.07;;
2772;SDS011;1394;47.044;15.744;2022-08-02T08:34:20;4.80;;;3.80;;
2772;SDS011;1394;47.044;15.744;2022-08-02T08:36:48;4.30;;;3.00;;
2772;SDS011;1394;47.044;15.744;2022-08-02T08:39:16;3.40;;;3.10;;
2772;SDS011;1394;47.044;15.744;2022-08-02T08:41:43;4.03;;;3.00;;
2772;SDS011;1394;47.044;15.744;2022-08-02T08:44:11;5.80;;;3.30;;
2772;SDS011;1394;47.044;15.744;2022-08-02T08:46:38;3.60;;;2.80;;
2772;SDS011;1394;47.044;15.744;2022-08-02T08:49:08;5.37;;;3.40;;
2772;SDS011;1394;47.044;15.744;2022-08-02T08:51:37;3.37;;;3.07;;
2772;SDS011;1394;47.044;15.744;2022-08-02T08:54:08;3.70;;;3.20;;
2772;SDS011;1394;47.044;15.744;2022-08-02T08:56:37;6.10;;;3.20;;
2772;SDS011;1394;47.044;15.744;2022-08-02T08:59:05;4.63;;;3.20;;
2772;SDS011;1394;47.044;15.744;2022-08-02T09:01:33;4.40;;;3.67;;
2772;SDS011;1394;47.044;15.744;2022-08-02T09:04:04;3.30;;;3.00;;
2772;SDS011;1394;47.044;15.744;2022-08-02T09:06:31;3.20;;;2.73;;
2772;SDS011;1394;47.044;15.744;2022-08-02T09:09:00;4.30;;;3.10;;
2772;SDS011;1394;47.044;15.744;2022-08-02T09:11:28;3.23;;;2.93;;
2772;SDS011;1394;47.044;15.744;2022-08-02T09:13:56;6.83;;;3.37;;
2772;SDS011;1394;47.044;15.744;2022-08-02T09:16:28;6.20;;;2.73;;
2772;SDS011;1394;47.044;15.744;2022-08-02T09:18:55;4.37;;;3.00;;
2772;SDS011;1394;47.044;15.744;2022-08-02T09:21:23;4.73;;;3.33;;
2772;SDS011;1394;47.044;15.744;2022-08-02T09:23:51;5.40;;;3.13;;
2772;SDS011;1394;47.044;15.744;2022-08-02T09:26:21;5.47;;;2.70;;
2772;SDS011;1394;47.044;15.744;2022-08-02T09:28:49;4.33;;;3.00;;
2772;SDS011;1394;47.044;15.744;2022-08-02T09:31:19;4.40;;;3.00;;
2772;SDS011;1394;47.044;15.744;2022-08-02T09:33:49;4.00;;;3.50;;
2772;SDS011;1394;47.044;15.744;2022-08-02T09:36:18;7.03;;;3.20;;
2772;SDS011;1394;47.044;15.744;2022-08-02T09:38:52;2.63;;;2.43;;
2772;SDS011;1394;47.044;15.744;2022-08-02T09:41:23;3.03;;;2.73;;
2772;SDS011;1394;47.044;15.744;2022-08-02T09:43:51;2.97;;;2.67;;
2772;SDS011;1394;47.044;15.744;2022-08-02T09:46:20;3.27;;;2.60;;
2772;SDS011;1394;47.044;15.744;2022-08-02T09:48:48;3.27;;;2.97;;
2772;SDS011;1394;47.044;15.744;2022-08-02T09:51:17;4.23;;;2.90;;
2772;SDS011;1394;47.044;15.744;2022-08-02T09:53:46;3.53;;;3.23;;
2772;SDS011;1394;47.044;15.744;2022-08-02T09:56:14;3.40;;;2.90;;
2772;SDS011;1394;47.044;15.744;2022-08-02T09:58:43;3.40;;;2.80;;
2772;SDS011;1394;47.044;15.744;2022-08-02T10:01:10;2.90;;;2.40;;
2772;SDS011;1394;47.044;15.744;2022-08-02T10:03:45;2.73;;;2.20;;
2772;SDS011;1394;47.044;15.744;2022-08-02T10:06:23;3.67;;;2.70;;
2772;SDS011;1394;47.044;15.744;2022-08-02T10:08:53;2.97;;;2.63;;
2772;SDS011;1394;47.044;15.744;2022-08-02T10:11:22;3.07;;;2.77;;
2772;SDS011;1394;47.044;15.744;2022-08-02T10:13:54;3.63;;;2.40;;
2772;SDS011;1394;47.044;15.744;2022-08-02T10:16:21;3.10;;;2.63;;
2772;SDS011;1394;47.044;15.744;2022-08-02T10:18:49;3.77;;;2.60;;
2772;SDS011;1394;47.044;15.744;2022-08-02T10:21:18;3.40;;;2.73;;
2772;SDS011;1394;47.044;15.744;2022-08-02T10:23:46;2.90;;;2.60;;
2772;SDS011;1394;47.044;15.744;2022-08-02T10:26:15;2.87;;;2.57;;
2772;SDS011;1394;47.044;15.744;2022-08-02T10:28:45;3.93;;;2.20;;
2772;SDS011;1394;47.044;15.744;2022-08-02T10:31:15;2.50;;;2.30;;
2772;SDS011;1394;47.044;15.744;2022-08-02T10:33:43;2.70;;;2.40;;
2772;SDS011;1394;47.044;15.744;2022-08-02T10:36:11;2.90;;;2.40;;
2772;SDS011;1394;47.044;15.744;2022-08-02T10:38:39;3.90;;;2.20;;
2772;SDS011;1394;47.044;15.744;2022-08-02T10:41:06;2.90;;;2.60;;
2772;SDS011;1394;47.044;15.744;2022-08-02T10:43:44;4.00;;;3.03;;
2772;SDS011;1394;47.044;15.744;2022-08-02T10:49:09;4.43;;;2.10;;
2772;SDS011;1394;47.044;15.744;2022-08-02T10:54:23;3.80;;;2.90;;
2772;SDS011;1394;47.044;15.744;2022-08-02T10:56:52;4.20;;;2.50;;
2772;SDS011;1394;47.044;15.744;2022-08-02T10:59:22;2.83;;;2.30;;
2772;SDS011;1394;47.044;15.744;2022-08-02T11:01:51;4.00;;;2.90;;
2772;SDS011;1394;47.044;15.744;2022-08-02T11:04:27;3.40;;;2.60;;
2772;SDS011;1394;47.044;15.744;2022-08-02T11:07:05;2.87;;;2.33;;
2772;SDS011;1394;47.044;15.744;2022-08-02T11:09:33;3.37;;;2.43;;
2772;SDS011;1394;47.044;15.744;2022-08-02T11:12:04;5.10;;;2.47;;
2772;SDS011;1394;47.044;15.744;2022-08-02T11:14:34;2.50;;;2.20;;
2772;SDS011;1394;47.044;15.744;2022-08-02T11:17:05;2.93;;;2.30;;
2772;SDS011;1394;47.044;15.744;2022-08-02T11:19:38;3.37;;;2.40;;
2772;SDS011;1394;47.044;15.744;2022-08-02T11:22:23;2.67;;;2.43;;
2772;SDS011;1394;47.044;15.744;2022-08-02T11:24:50;4.00;;;2.57;;
2772;SDS011;1394;47.044;15.744;2022-08-02T11:27:18;3.07;;;2.77;;
2772;SDS011;1394;47.044;15.744;2022-08-02T11:29:46;2.90;;;2.60;;
2772;SDS011;1394;47.044;15.744;2022-08-02T11:32:15;4.80;;;3.00;;
2772;SDS011;1394;47.044;15.744;2022-08-02T11:34:47;6.30;;;2.90;;
2772;SDS011;1394;47.044;15.744;2022-08-02T11:37:26;3.80;;;2.90;;
2772;SDS011;1394;47.044;15.744;2022-08-02T11:39:56;3.13;;;2.60;;
2772;SDS011;1394;47.044;15.744;2022-08-02T11:42:29;3.10;;;2.57;;
2772;SDS011;1394;47.044;15.744;2022-08-02T11:44:58;2.77;;;2.43;;
2772;SDS011;1394;47.044;15.744;2022-08-02T11:47:26;5.27;;;2.87;;
2772;SDS011;1394;47.044;15.744;2022-08-02T11:50:04;6.03;;;2.83;;
2772;SDS011;1394;47.044;15.744;2022-08-02T11:52:32;6.37;;;3.00;;
2772;SDS011;1394;47.044;15.744;2022-08-02T11:55:04;3.00;;;2.70;;
2772;SDS011;1394;47.044;15.744;2022-08-02T11:57:32;2.67;;;2.30;;
2772;SDS011;1394;47.044;15.744;2022-08-02T12:00:00;3.57;;;2.80;;
2772;SDS011;1394;47.044;15.744;2022-08-02T12:02:29;3.60;;;2.60;;
2772;SDS011;1394;47.044;15.744;2022-08-02T12:04:58;3.90;;;2.30;;
2772;SDS011;1394;47.044;15.744;2022-08-02T12:07:27;3.90;;;2.57;;
2772;SDS011;1394;47.044;15.744;2022-08-02T12:09:58;2.73;;;2.53;;
2772;SDS011;1394;47.044;15.744;2022-08-02T12:12:26;3.17;;;2.80;;
2772;SDS011;1394;47.044;15.744;2022-08-02T12:14:53;3.90;;;2.40;;
2772;SDS011;1394;47.044;15.744;2022-08-02T12:17:21;2.60;;;2.40;;
2772;SDS011;1394;47.044;15.744;2022-08-02T12:20:06;2.67;;;2.23;;
2772;SDS011;1394;47.044;15.744;2022-08-02T12:22:35;3.03;;;2.73;;
2772;SDS011;1394;47.044;15.744;2022-08-02T12:25:14;3.87;;;2.50;;
2772;SDS011;1394;47.044;15.744;2022-08-02T12:27:42;2.90;;;2.60;;
2772;SDS011;1394;47.044;15.744;2022-08-02T12:30:10;3.13;;;2.30;;
2772;SDS011;1394;47.044;15.744;2022-08-02T12:32:38;4.70;;;3.13;;
2772;SDS011;1394;47.044;15.744;2022-08-02T12:35:07;4.57;;;3.10;;
2772;SDS011;1394;47.044;15.744;2022-08-02T12:37:36;3.80;;;2.70;;
2772;SDS011;1394;47.044;15.744;2022-08-02T12:40:18;3.40;;;2.80;;
2772;SDS011;1394;47.044;15.744;2022-08-02T12:42:45;4.25;;;2.80;;
2772;SDS011;1394;47.044;15.744;2022-08-02T12:45:13;3.40;;;2.87;;
2772;SDS011;1394;47.044;15.744;2022-08-02T12:47:43;4.03;;;2.90;;
2772;SDS011;1394;47.044;15.744;2022-08-02T12:50:11;3.50;;;2.93;;
2772;SDS011;1394;47.044;15.744;2022-08-02T12:52:40;3.33;;;2.50;;
2772;SDS011;1394;47.044;15.744;2022-08-02T12:55:14;4.03;;;3.07;;
2772;SDS011;1394;47.044;15.744;2022-08-02T12:57:49;6.10;;;3.80;;
2772;SDS011;1394;47.044;15.744;2022-08-02T13:00:21;3.93;;;3.07;;
2772;SDS011;1394;47.044;15.744;2022-08-02T13:02:49;3.47;;;2.97;;
2772;SDS011;1394;47.044;15.744;2022-08-02T13:05:16;3.80;;;3.40;;
2772;SDS011;1394;47.044;15.744;2022-08-02T13:07:45;4.70;;;3.20;;
2772;SDS011;1394;47.044;15.744;2022-08-02T13:10:12;5.00;;;3.80;;
2772;SDS011;1394;47.044;15.744;2022-08-02T13:12:40;3.97;;;3.00;;
2772;SDS011;1394;47.044;15.744;2022-08-02T13:15:08;3.60;;;3.30;;
2772;SDS011;1394;47.044;15.744;2022-08-02T13:17:35;6.80;;;3.27;;
2772;SDS011;1394;47.044;15.744;2022-08-02T13:20:03;4.37;;;3.87;;
2772;SDS011;1394;47.044;15.744;2022-08-02T13:22:30;4.93;;;3.80;;
2772;SDS011;1394;47.044;15.744;2022-08-02T13:24:59;4.20;;;3.80;;
2772;SDS011;1394;47.044;15.744;2022-08-02T13:27:26;4.13;;;3.63;;
2772;SDS011;1394;47.044;15.744;2022-08-02T13:29:54;6.47;;;3.77;;
2772;SDS011;1394;47.044;15.744;2022-08-02T13:32:22;3.93;;;3.50;;
2772;SDS011;1394;47.044;15.744;2022-08-02T13:34:50;4.37;;;3.73;;
2772;SDS011;1394;47.044;15.744;2022-08-02T13:37:17;4.03;;;3.40;;
2772;SDS011;1394;47.044;15.744;2022-08-02T13:39:44;3.83;;;3.53;;
2772;SDS011;1394;47.044;15.744;2022-08-02T13:42:13;3.50;;;3.20;;
2772;SDS011;1394;47.044;15.744;2022-08-02T13:44:41;13.67;;;3.20;;
2772;SDS011;1394;47.044;15.744;2022-08-02T13:47:08;4.50;;;3.03;;
2772;SDS011;1394;47.044;15.744;2022-08-02T13:49:35;3.40;;;3.00;;
2772;SDS011;1394;47.044;15.744;2022-08-02T13:52:03;4.00;;;3.50;;
2772;SDS011;1394;47.044;15.744;2022-08-02T13:54:30;6.20;;;3.07;;
2772;SDS011;1394;47.044;15.744;2022-08-02T13:56:58;4.33;;;3.20;;
2772;SDS011;1394;47.044;15.744;2022-08-02T13:59:27;3.30;;;3.00;;
2772;SDS011;1394;47.044;15.744;2022-08-02T14:01:55;3.73;;;3.20;;
2772;SDS011;1394;47.044;15.744;2022-08-02T14:04:23;3.50;;;3.20;;
2772;SDS011;1394;47.044;15.744;2022-08-02T14:06:51;3.40;;;3.10;;
2772;SDS011;1394;47.044;15.744;2022-08-02T14:09:18;3.50;;;3.20;;
2772;SDS011;1394;47.044;15.744;2022-08-02T14:11:45;3.40;;;3.10;;
2772;SDS011;1394;47.044;15.744;2022-08-02T14:14:13;3.27;;;2.97;;
2772;SDS011;1394;47.044;15.744;2022-08-02T14:16:42;4.10;;;3.70;;
2772;SDS011;1394;47.044;15.744;2022-08-02T14:19:09;5.57;;;3.40;;
2772;SDS011;1394;47.044;15.744;2022-08-02T14:21:37;4.73;;;3.40;;
2772;SDS011;1394;47.044;15.744;2022-08-02T14:24:06;3.60;;;3.30;;
2772;SDS011;1394;47.044;15.744;2022-08-02T14:26:33;3.20;;;2.80;;
2772;SDS011;1394;47.044;15.744;2022-08-02T14:29:02;5.50;;;3.40;;
2772;SDS011;1394;47.044;15.744;2022-08-02T14:31:29;4.80;;;3.00;;
2772;SDS011;1394;47.044;15.744;2022-08-02T14:33:58;3.47;;;3.17;;
2772;SDS011;1394;47.044;15.744;2022-08-02T14:36:26;3.90;;;3.50;;
2772;SDS011;1394;47.044;15.744;2022-08-02T14:38:53;4.17;;;3.20;;
2772;SDS011;1394;47.044;15.744;2022-08-02T14:41:20;4.60;;;3.10;;
2772;SDS011;1394;47.044;15.744;2022-08-02T14:43:47;4.93;;;3.30;;
2772;SDS011;1394;47.044;15.744;2022-08-02T14:46:30;4.67;;;3.60;;
2772;SDS011;1394;47.044;15.744;2022-08-02T14:48:58;4.57;;;3.70;;
2772;SDS011;1394;47.044;15.744;2022-08-02T14:51:27;3.97;;;3.33;;
2772;SDS011;1394;47.044;15.744;2022-08-02T14:53:55;4.30;;;3.57;;
2772;SDS011;1394;47.044;15.744;2022-08-02T14:56:22;4.13;;;3.23;;
2772;SDS011;1394;47.044;15.744;2022-08-02T14:58:49;6.47;;;3.93;;
2772;SDS011;1394;47.044;15.744;2022-08-02T15:01:16;5.10;;;2.90;;
2772;SDS011;1394;47.044;15.744;2022-08-02T15:03:44;3.97;;;3.07;;
2772;SDS011;1394;47.044;15.744;2022-08-02T15:06:12;5.20;;;3.40;;
2772;SDS011;1394;47.044;15.744;2022-08-02T15:08:39;7.00;;;2.83;;
2772;SDS011;1394;47.044;15.744;2022-08-02T15:11:07;7.87;;;2.83;;
2772;SDS011;1394;47.044;15.744;2022-08-02T15:13:34;3.10;;;2.00;;
2772;SDS011;1394;47.044;15.744;2022-08-02T15:16:02;3.10;;;2.40;;
2772;SDS011;1394;47.044;15.744;2022-08-02T15:18:29;6.80;;;2.90;;